createdAt,value
2018-09-03T00:00:29.412Z,63.15
2018-09-03T00:02:58.637Z,62.96
2018-09-03T00:05:27.842Z,62.72
2018-09-03T00:07:57.028Z,63.26
2018-09-03T00:10:26.189Z,62.77
2018-09-03T00:12:55.348Z,63.01
2018-09-03T00:15:24.442Z,63.32
2018-09-03T00:17:53.628Z,63.44
2018-09-03T00:20:22.779Z,63.19
2018-09-03T00:22:51.954Z,63.58
2018-09-03T00:25:21.066Z,63.60
2018-09-03T00:27:50.232Z,63.60
2018-09-03T00:30:19.366Z,63.61
2018-09-03T00:32:53.774Z,63.88
2018-09-03T00:35:28.221Z,63.80
2018-09-03T00:39:06.577Z,63.99
2018-09-03T00:41:41.044Z,63.69
2018-09-03T00:44:15.373Z,64.11
2018-09-03T00:46:49.751Z,64.02
2018-09-03T00:49:18.913Z,64.30
2018-09-03T00:51:48.040Z,63.94
2018-09-03T00:54:17.232Z,64.42
2018-09-03T00:56:46.336Z,64.34
2018-09-03T00:59:15.515Z,64.64
2018-09-03T01:01:44.601Z,65.07
2018-09-03T01:04:13.753Z,64.92
2018-09-03T01:06:42.834Z,65.24
2018-09-03T01:09:11.955Z,65.05
2018-09-03T01:11:41.029Z,64.90
2018-09-03T01:14:10.150Z,65.33
2018-09-03T01:16:39.254Z,65.10
2018-09-03T01:19:08.376Z,65.22
2018-09-03T01:21:37.509Z,65.01
2018-09-03T01:24:06.838Z,64.92
2018-09-03T01:26:35.962Z,65.18
2018-09-03T01:29:05.051Z,64.74
2018-09-03T01:31:34.213Z,65.09
2018-09-03T01:34:03.392Z,64.87
2018-09-03T01:36:32.482Z,64.85
2018-09-03T01:39:01.608Z,64.70
2018-09-03T01:41:30.780Z,64.49
2018-09-03T01:43:59.996Z,64.74
2018-09-03T01:46:29.086Z,64.65
2018-09-03T01:48:58.148Z,64.37
2018-09-03T01:51:27.283Z,64.13
2018-09-03T01:53:56.466Z,64.13
2018-09-03T01:56:25.583Z,63.72
2018-09-03T01:58:54.707Z,64.11
2018-09-03T02:01:23.859Z,63.94
2018-09-03T02:03:52.979Z,64.33
2018-09-03T02:06:22.131Z,64.07
2018-09-03T02:08:51.239Z,64.35
2018-09-03T02:11:20.417Z,64.56
2018-09-03T02:13:49.570Z,64.88
2018-09-03T02:16:18.706Z,65.09
2018-09-03T02:18:47.852Z,65.13
2018-09-03T02:21:17.010Z,65.29
2018-09-03T02:23:46.123Z,65.35
2018-09-03T02:26:15.232Z,65.16
2018-09-03T02:28:44.406Z,65.36
2018-09-03T02:31:13.540Z,65.96
2018-09-03T02:33:42.669Z,65.89
2018-09-03T02:36:11.879Z,65.71
2018-09-03T02:38:41.014Z,66.01
2018-09-03T02:41:10.121Z,66.57
2018-09-03T02:43:39.415Z,66.04
2018-09-03T02:46:08.514Z,66.12
2018-09-03T02:48:37.623Z,66.64
2018-09-03T02:51:07.165Z,66.69
2018-09-03T02:53:36.478Z,66.52
2018-09-03T02:56:05.608Z,66.34
2018-09-03T02:58:34.717Z,66.32
2018-09-03T03:01:03.913Z,66.07
2018-09-03T03:03:33.082Z,66.16
2018-09-03T03:06:02.178Z,66.24
2018-09-03T03:08:31.324Z,66.51
2018-09-03T03:11:00.516Z,66.64
2018-09-03T03:13:29.625Z,66.45
2018-09-03T03:15:58.737Z,66.36
2018-09-03T03:18:27.825Z,66.84
2018-09-03T03:20:56.913Z,67.01
2018-09-03T03:23:26.018Z,66.95
2018-09-03T03:25:55.190Z,67.02
2018-09-03T03:28:24.403Z,66.67
2018-09-03T03:30:53.558Z,66.75
2018-09-03T03:33:22.656Z,66.69
2018-09-03T03:35:51.770Z,66.35
2018-09-03T03:38:20.906Z,65.52
2018-09-03T03:40:50.051Z,65.69
2018-09-03T03:43:19.202Z,65.92
2018-09-03T03:45:48.343Z,65.81
2018-09-03T03:48:17.480Z,65.97
2018-09-03T03:50:46.635Z,66.01
2018-09-03T03:53:15.786Z,65.92
2018-09-03T03:55:45.125Z,65.91
2018-09-03T03:58:14.317Z,65.80
2018-09-03T04:00:43.456Z,65.90
2018-09-03T04:03:12.836Z,65.89
2018-09-03T04:05:41.945Z,65.53
2018-09-03T04:08:11.069Z,66.03
2018-09-03T04:10:40.212Z,65.90
2018-09-03T04:13:09.321Z,65.90
2018-09-03T04:15:38.439Z,65.82
2018-09-03T04:18:07.580Z,65.93
2018-09-03T04:20:36.706Z,65.86
2018-09-03T04:23:06.074Z,65.67
2018-09-03T04:25:35.135Z,66.12
2018-09-03T04:28:04.244Z,65.60
2018-09-03T04:30:33.364Z,66.11
2018-09-03T04:33:02.483Z,65.82
2018-09-03T04:35:31.590Z,65.81
2018-09-03T04:38:00.815Z,65.87
2018-09-03T04:40:29.979Z,66.01
2018-09-03T04:42:59.118Z,65.99
2018-09-03T04:45:28.240Z,65.79
2018-09-03T04:47:57.369Z,65.93
2018-09-03T04:50:26.450Z,65.68
2018-09-03T04:52:55.563Z,65.56
2018-09-03T04:55:24.720Z,65.51
2018-09-03T04:57:53.783Z,65.26
2018-09-03T05:00:22.918Z,65.52
2018-09-03T05:02:51.985Z,65.01
2018-09-03T05:05:21.115Z,65.18
2018-09-03T05:07:50.230Z,65.04
2018-09-03T05:10:19.324Z,64.88
2018-09-03T05:12:50.037Z,64.75
2018-09-03T05:15:19.183Z,64.63
2018-09-03T05:17:48.345Z,64.51
2018-09-03T05:20:17.528Z,64.20
2018-09-03T05:22:46.646Z,64.22
2018-09-03T05:25:15.753Z,64.08
2018-09-03T05:27:44.817Z,63.67
2018-09-03T05:30:13.902Z,63.41
2018-09-03T05:32:43.054Z,63.21
2018-09-03T05:35:12.196Z,62.70
2018-09-03T05:37:41.441Z,62.26
2018-09-03T05:40:10.848Z,62.28
2018-09-03T05:42:40.123Z,61.96
2018-09-03T05:45:09.318Z,62.19
2018-09-03T05:47:38.494Z,61.93
2018-09-03T05:50:07.653Z,61.85
2018-09-03T05:52:36.756Z,61.53
2018-09-03T05:55:05.878Z,61.08
2018-09-03T05:57:34.951Z,61.17
2018-09-03T06:00:04.055Z,61.04
2018-09-03T06:02:33.158Z,61.25
2018-09-03T06:05:02.309Z,61.49
2018-09-03T06:07:31.450Z,61.22
2018-09-03T06:10:00.520Z,60.73
2018-09-03T06:12:29.668Z,59.88
2018-09-03T06:14:58.780Z,59.39
2018-09-03T06:17:27.862Z,58.39
2018-09-03T06:19:57.004Z,57.89
2018-09-03T06:22:26.083Z,57.04
2018-09-03T06:24:55.186Z,56.96
2018-09-03T06:27:24.281Z,56.90
2018-09-03T06:29:53.389Z,57.28
2018-09-03T06:32:22.497Z,57.24
2018-09-03T06:34:51.647Z,57.10
2018-09-03T06:37:20.780Z,57.59
2018-09-03T06:39:49.894Z,57.34
2018-09-03T06:42:18.982Z,57.38
2018-09-03T06:44:48.057Z,57.31
2018-09-03T06:47:17.166Z,56.71
2018-09-03T06:49:46.338Z,56.04
2018-09-03T06:52:15.496Z,56.19
2018-09-03T06:54:44.650Z,56.32
2018-09-03T06:57:13.995Z,55.94
2018-09-03T06:59:43.128Z,55.62
2018-09-03T07:02:12.254Z,54.80
2018-09-03T07:04:41.358Z,54.88
2018-09-03T07:07:10.474Z,54.57
2018-09-03T07:09:39.575Z,54.12
2018-09-03T07:12:08.694Z,54.19
2018-09-03T07:14:37.792Z,54.22
2018-09-03T07:17:06.946Z,53.91
2018-09-03T07:19:36.021Z,54.13
2018-09-03T07:22:05.190Z,53.77
2018-09-03T07:24:34.549Z,54.15
2018-09-03T07:27:03.674Z,53.75
2018-09-03T07:29:32.794Z,53.44
2018-09-03T07:32:01.913Z,52.61
2018-09-03T07:34:31.054Z,51.89
2018-09-03T07:37:00.199Z,52.34
2018-09-03T07:39:30.127Z,51.64
2018-09-03T07:41:59.251Z,50.72
2018-09-03T07:44:28.397Z,51.50
2018-09-03T07:46:57.506Z,51.68
2018-09-03T07:49:26.652Z,50.49
2018-09-03T07:51:56.024Z,50.03
2018-09-03T07:54:25.109Z,48.74
2018-09-03T07:56:54.198Z,48.45
2018-09-03T07:59:23.333Z,48.22
2018-09-03T08:01:52.433Z,47.54
2018-09-03T08:04:21.587Z,47.42
2018-09-03T08:06:50.711Z,47.83
2018-09-03T08:09:19.812Z,46.47
2018-09-03T08:11:48.957Z,46.20
2018-09-03T08:14:18.106Z,45.17
2018-09-03T08:16:47.225Z,44.37
2018-09-03T08:19:16.353Z,42.94
2018-09-03T08:21:45.523Z,42.44
2018-09-03T08:24:14.682Z,42.31
2018-09-03T08:26:43.852Z,43.19
2018-09-03T08:29:13.008Z,42.57
2018-09-03T08:31:42.346Z,42.82
2018-09-03T08:34:11.477Z,43.33
2018-09-03T08:36:40.800Z,43.25
2018-09-03T08:39:09.930Z,44.22
2018-09-03T08:41:39.095Z,44.25
2018-09-03T08:44:08.218Z,44.02
2018-09-03T08:46:37.467Z,43.92
2018-09-03T08:49:06.855Z,44.00
2018-09-03T08:51:35.969Z,43.62
2018-09-03T08:54:05.113Z,43.62
2018-09-03T08:56:34.259Z,43.48
2018-09-03T08:59:03.402Z,43.39
2018-09-03T09:01:32.547Z,42.95
2018-09-03T09:04:01.709Z,43.01
2018-09-03T09:06:30.787Z,42.09
2018-09-03T09:08:59.950Z,41.20
2018-09-03T09:11:29.058Z,41.26
2018-09-03T09:13:58.223Z,41.07
2018-09-03T09:16:27.317Z,40.35
2018-09-03T09:18:56.453Z,41.07
2018-09-03T09:21:25.534Z,35.29
2018-09-03T09:23:54.638Z,33.12
2018-09-03T09:26:23.879Z,34.67
2018-09-03T09:28:53.005Z,34.63
2018-09-03T09:31:22.078Z,35.32
2018-09-03T09:33:51.208Z,32.67
2018-09-03T09:36:20.320Z,29.62
2018-09-03T09:38:49.462Z,28.75
2018-09-03T09:41:18.569Z,26.90
2018-09-03T09:43:47.753Z,26.86
2018-09-03T09:46:16.865Z,28.03
2018-09-03T09:48:45.995Z,27.59
2018-09-03T09:51:15.102Z,27.83
2018-09-03T09:53:44.197Z,28.01
2018-09-03T09:56:13.362Z,27.62
2018-09-03T09:58:42.462Z,27.99
2018-09-03T10:01:16.980Z,27.94
2018-09-03T10:03:46.087Z,28.36
2018-09-03T10:06:15.249Z,28.43
2018-09-03T10:08:44.387Z,28.38
2018-09-03T10:11:13.482Z,28.78
2018-09-03T10:13:42.594Z,27.44
2018-09-03T10:16:11.695Z,27.55
2018-09-03T10:18:40.842Z,27.94
2018-09-03T10:21:09.983Z,27.50
2018-09-03T10:23:39.086Z,27.06
2018-09-03T10:26:08.393Z,26.81
2018-09-03T10:28:37.535Z,28.17
2018-09-03T10:31:07.255Z,27.36
2018-09-03T10:33:36.388Z,30.08
2018-09-03T10:36:05.548Z,32.08
2018-09-03T10:38:34.728Z,30.34
2018-09-03T10:41:03.884Z,31.04
2018-09-03T10:43:33.040Z,29.09
2018-09-03T10:46:02.192Z,28.23
2018-09-03T10:48:31.306Z,28.45
2018-09-03T10:51:00.422Z,28.45
2018-09-03T10:53:29.586Z,29.13
2018-09-03T10:55:58.731Z,28.84
2018-09-03T10:58:27.809Z,28.84
2018-09-03T11:00:56.951Z,27.34
2018-09-03T11:03:26.027Z,27.51
2018-09-03T11:05:55.130Z,28.23
2018-09-03T11:08:24.228Z,28.81
2018-09-03T11:10:53.417Z,28.59
2018-09-03T11:13:22.588Z,28.36
2018-09-03T11:15:51.732Z,29.61
2018-09-03T11:18:20.802Z,30.12
2018-09-03T11:20:49.872Z,30.77
2018-09-03T11:23:18.968Z,31.37
2018-09-03T11:25:48.062Z,31.77
2018-09-03T11:28:17.177Z,32.31
2018-09-03T11:30:46.339Z,32.87
2018-09-03T11:33:15.546Z,32.58
2018-09-03T11:35:44.774Z,32.41
2018-09-03T11:38:13.970Z,32.08
2018-09-03T11:40:43.278Z,31.85
2018-09-03T11:43:12.521Z,31.40
2018-09-03T11:45:41.651Z,31.61
2018-09-03T11:48:10.752Z,31.68
2018-09-03T11:50:39.879Z,32.14
2018-09-03T11:53:09.042Z,32.58
2018-09-03T11:55:38.172Z,32.63
2018-09-03T11:58:07.301Z,32.62
2018-09-03T12:00:36.542Z,32.83
2018-09-03T12:03:05.871Z,32.38
2018-09-03T12:05:34.994Z,32.45
2018-09-03T12:08:04.102Z,32.41
2018-09-03T12:10:33.261Z,32.04
2018-09-03T12:13:02.386Z,32.48
2018-09-03T12:15:38.699Z,32.14
2018-09-03T12:18:07.842Z,31.68
2018-09-03T12:20:36.970Z,31.83
2018-09-03T12:23:06.146Z,31.33
2018-09-03T12:25:35.232Z,31.04
2018-09-03T12:28:04.427Z,31.33
2018-09-03T12:30:33.585Z,30.70
2018-09-03T12:33:02.740Z,30.60
2018-09-03T12:35:31.935Z,30.11
2018-09-03T12:38:01.108Z,30.26
2018-09-03T12:40:30.258Z,30.93
2018-09-03T12:42:59.415Z,30.72
2018-09-03T12:45:33.932Z,31.05
2018-09-03T12:48:03.297Z,31.35
2018-09-03T12:50:32.411Z,31.02
2018-09-03T12:53:01.699Z,31.53
2018-09-03T12:55:30.845Z,30.10
2018-09-03T12:57:59.987Z,31.26
2018-09-03T13:00:29.138Z,31.16
2018-09-03T13:02:58.335Z,30.66
2018-09-03T13:05:27.435Z,30.22
2018-09-03T13:07:56.559Z,30.69
2018-09-03T13:10:25.754Z,30.90
2018-09-03T13:12:54.899Z,30.98
2018-09-03T13:15:24.067Z,31.41
2018-09-03T13:17:53.232Z,31.71
2018-09-03T13:20:22.326Z,32.10
2018-09-03T13:22:51.472Z,31.04
2018-09-03T13:25:20.636Z,31.70
2018-09-03T13:27:49.833Z,32.57
2018-09-03T13:30:19.016Z,33.35
2018-09-03T13:32:48.194Z,33.09
2018-09-03T13:35:17.385Z,33.45
2018-09-03T13:37:46.724Z,33.90
2018-09-03T13:40:15.898Z,33.94
2018-09-03T13:42:45.029Z,33.87
2018-09-03T13:45:14.228Z,33.42
2018-09-03T13:47:43.399Z,32.93
2018-09-03T13:50:12.544Z,32.69
2018-09-03T13:52:41.691Z,32.74
2018-09-03T13:55:10.813Z,33.17
2018-09-03T13:57:39.983Z,32.85
2018-09-03T14:00:10.531Z,32.82
2018-09-03T14:02:39.828Z,33.00
2018-09-03T14:05:09.009Z,32.83
2018-09-03T14:07:38.109Z,32.78
2018-09-03T14:10:07.318Z,31.72
2018-09-03T14:12:36.457Z,31.62
2018-09-03T14:15:06.096Z,31.55
2018-09-03T14:17:35.211Z,31.71
2018-09-03T14:20:04.556Z,32.82
2018-09-03T14:22:33.637Z,33.12
2018-09-03T14:25:02.860Z,33.53
2018-09-03T14:27:32.023Z,33.20
2018-09-03T14:30:01.139Z,33.30
2018-09-03T14:32:30.355Z,33.79
2018-09-03T14:34:59.474Z,33.63
2018-09-03T14:37:28.553Z,33.42
2018-09-03T14:39:57.719Z,33.38
2018-09-03T14:42:26.952Z,31.95
2018-09-03T14:44:56.426Z,32.78
2018-09-03T14:47:25.600Z,32.47
2018-09-03T14:49:54.744Z,32.07
2018-09-03T14:52:23.905Z,32.65
2018-09-03T14:54:53.112Z,31.92
2018-09-03T14:57:22.328Z,31.72
2018-09-03T14:59:51.517Z,31.94
2018-09-03T15:02:20.734Z,32.64
2018-09-03T15:04:49.889Z,33.19
2018-09-03T15:07:19.077Z,33.16
2018-09-03T15:09:48.319Z,33.33
2018-09-03T15:12:17.505Z,33.28
2018-09-03T15:14:46.659Z,34.05
2018-09-03T15:17:15.819Z,34.03
2018-09-03T15:19:44.990Z,33.72
2018-09-03T15:22:14.179Z,33.77
2018-09-03T15:24:43.310Z,33.56
2018-09-03T15:27:12.444Z,33.49
2018-09-03T15:29:41.648Z,34.28
2018-09-03T15:32:10.747Z,37.93
2018-09-03T15:34:39.890Z,38.50
2018-09-03T15:37:09.085Z,37.32
2018-09-03T15:39:38.289Z,36.31
2018-09-03T15:42:07.449Z,36.19
2018-09-03T15:44:36.633Z,36.43
2018-09-03T15:47:05.763Z,36.05
2018-09-03T15:49:34.924Z,35.62
2018-09-03T15:52:04.112Z,36.37
2018-09-03T15:54:33.269Z,36.44
2018-09-03T15:57:02.443Z,36.58
2018-09-03T15:59:31.832Z,36.27
2018-09-03T16:02:01.023Z,36.66
2018-09-03T16:04:30.186Z,36.97
2018-09-03T16:06:59.345Z,36.82
2018-09-03T16:09:28.473Z,37.35
2018-09-03T16:11:57.619Z,36.77
2018-09-03T16:14:26.791Z,36.75
2018-09-03T16:16:55.946Z,37.05
2018-09-03T16:19:25.181Z,36.88
2018-09-03T16:21:54.335Z,36.54
2018-09-03T16:24:23.714Z,37.12
2018-09-03T16:26:52.869Z,37.21
2018-09-03T16:29:21.986Z,38.12
2018-09-03T16:31:51.206Z,40.26
2018-09-03T16:34:20.402Z,41.29
2018-09-03T16:36:49.534Z,41.75
2018-09-03T16:39:18.707Z,42.22
2018-09-03T16:41:47.858Z,42.78
2018-09-03T16:44:16.991Z,43.10
2018-09-03T16:46:46.153Z,43.81
2018-09-03T16:49:15.293Z,43.85
2018-09-03T16:51:44.594Z,44.28
2018-09-03T16:54:13.789Z,44.84
2018-09-03T16:56:43.027Z,45.15
2018-09-03T16:59:12.135Z,45.68
2018-09-03T17:01:41.289Z,45.85
2018-09-03T17:04:10.494Z,46.03
2018-09-03T17:06:39.656Z,45.92
2018-09-03T17:09:08.876Z,46.13
2018-09-03T17:11:38.011Z,46.61
2018-09-03T17:14:07.343Z,48.19
2018-09-03T17:16:36.512Z,48.15
2018-09-03T17:19:05.925Z,49.56
2018-09-03T17:21:35.065Z,49.82
2018-09-03T17:24:04.223Z,50.22
2018-09-03T17:26:33.334Z,50.80
2018-09-03T17:29:02.486Z,49.87
2018-09-03T17:31:31.659Z,51.11
2018-09-03T17:34:00.796Z,51.30
2018-09-03T17:36:29.945Z,50.32
2018-09-03T17:38:59.083Z,50.38
2018-09-03T17:41:28.253Z,49.85
2018-09-03T17:43:57.390Z,49.33
2018-09-03T17:46:26.480Z,49.51
2018-09-03T17:48:55.880Z,49.10
2018-09-03T17:51:25.057Z,49.46
2018-09-03T17:53:54.206Z,49.77
2018-09-03T17:56:23.349Z,49.67
2018-09-03T17:58:52.469Z,49.81
2018-09-03T18:01:21.599Z,49.71
2018-09-03T18:03:50.828Z,49.79
2018-09-03T18:06:19.959Z,49.56
2018-09-03T18:08:49.098Z,50.13
2018-09-03T18:11:18.258Z,50.14
2018-09-03T18:13:47.450Z,50.02
2018-09-03T18:16:16.580Z,49.92
2018-09-03T18:18:45.792Z,50.01
2018-09-03T18:21:14.947Z,49.99
2018-09-03T18:23:44.175Z,49.95
2018-09-03T18:26:13.334Z,50.59
2018-09-03T18:28:42.594Z,51.15
2018-09-03T18:31:11.687Z,51.69
2018-09-03T18:33:40.822Z,52.09
2018-09-03T18:36:10.011Z,51.80
2018-09-03T18:38:39.170Z,52.47
2018-09-03T18:41:08.307Z,52.38
2018-09-03T18:43:37.512Z,52.74
2018-09-03T18:46:06.977Z,52.82
2018-09-03T18:48:36.136Z,52.99
2018-09-03T18:51:05.739Z,52.99
2018-09-03T18:53:34.943Z,53.60
2018-09-03T18:56:04.103Z,53.32
2018-09-03T18:58:33.232Z,52.96
2018-09-03T19:01:02.363Z,53.54
2018-09-03T19:03:31.620Z,53.69
2018-09-03T19:06:00.769Z,53.76
2018-09-03T19:08:29.852Z,54.00
2018-09-03T19:10:58.952Z,53.73
2018-09-03T19:13:28.209Z,54.08
2018-09-03T19:15:57.344Z,53.92
2018-09-03T19:18:26.494Z,54.54
2018-09-03T19:20:55.675Z,55.10
2018-09-03T19:23:24.953Z,54.99
2018-09-03T19:25:54.213Z,55.48
2018-09-03T19:28:23.428Z,55.80
2018-09-03T19:30:52.532Z,55.46
2018-09-03T19:33:21.709Z,55.70
2018-09-03T19:35:50.823Z,55.79
2018-09-03T19:38:20.061Z,55.88
2018-09-03T19:40:49.272Z,56.35
2018-09-03T19:43:18.443Z,56.35
2018-09-03T19:45:47.651Z,56.34
2018-09-03T19:48:16.984Z,56.19
2018-09-03T19:50:46.241Z,56.60
2018-09-03T19:53:15.416Z,56.75
2018-09-03T19:55:44.571Z,56.99
2018-09-03T19:58:13.835Z,57.05
2018-09-03T20:00:43.006Z,57.80
2018-09-03T20:03:12.513Z,58.02
2018-09-03T20:05:41.706Z,58.36
2018-09-03T20:08:10.840Z,58.34
2018-09-03T20:10:39.977Z,58.92
2018-09-03T20:13:09.165Z,58.98
2018-09-03T20:15:38.400Z,58.62
2018-09-03T20:18:07.577Z,58.77
2018-09-03T20:20:36.685Z,58.93
2018-09-03T20:23:05.990Z,59.54
2018-09-03T20:25:35.103Z,59.24
2018-09-03T20:28:04.240Z,59.30
2018-09-03T20:30:33.420Z,59.72
2018-09-03T20:33:02.479Z,59.48
2018-09-03T20:35:31.586Z,60.03
2018-09-03T20:38:00.765Z,60.27
2018-09-03T20:40:29.937Z,58.36
2018-09-03T20:42:59.186Z,57.21
2018-09-03T20:45:28.291Z,56.85
2018-09-03T20:47:57.526Z,56.51
2018-09-03T20:50:29.578Z,55.85
2018-09-03T20:52:58.685Z,56.08
2018-09-03T20:55:27.909Z,55.86
2018-09-03T20:57:57.064Z,56.06
2018-09-03T21:00:26.193Z,56.06
2018-09-03T21:02:55.335Z,56.19
2018-09-03T21:05:24.471Z,56.28
2018-09-03T21:07:53.670Z,56.60
2018-09-03T21:10:22.800Z,56.51
2018-09-03T21:12:51.981Z,56.37
2018-09-03T21:15:21.125Z,56.91
2018-09-03T21:17:50.272Z,56.75
2018-09-03T21:20:19.351Z,56.96
2018-09-03T21:22:48.461Z,57.52
2018-09-03T21:25:17.599Z,57.59
2018-09-03T21:27:46.740Z,57.95
2018-09-03T21:30:15.882Z,58.08
2018-09-03T21:32:45.008Z,58.13
2018-09-03T21:35:14.140Z,58.03
2018-09-03T21:37:43.261Z,58.40
2018-09-03T21:40:12.398Z,59.15
2018-09-03T21:42:41.526Z,59.54
2018-09-03T21:45:10.680Z,59.98
2018-09-03T21:47:39.817Z,60.33
2018-09-03T21:50:08.960Z,60.03
2018-09-03T21:52:38.139Z,59.97
2018-09-03T21:55:07.308Z,59.67
2018-09-03T21:57:36.457Z,59.25
2018-09-03T22:00:06.040Z,58.64
2018-09-03T22:02:35.156Z,58.55
2018-09-03T22:05:04.476Z,58.81
2018-09-03T22:07:33.599Z,59.02
2018-09-03T22:10:02.707Z,57.89
2018-09-03T22:12:31.850Z,56.63
2018-09-03T22:15:00.983Z,56.44
2018-09-03T22:17:30.155Z,55.87
2018-09-03T22:19:59.308Z,55.64
2018-09-03T22:22:28.467Z,55.17
2018-09-03T22:24:57.618Z,55.25
2018-09-03T22:27:33.515Z,54.75
2018-09-03T22:30:02.616Z,54.64
2018-09-03T22:32:31.793Z,54.71
2018-09-03T22:35:00.913Z,54.45
2018-09-03T22:37:30.004Z,54.58
2018-09-03T22:39:59.135Z,54.56
2018-09-03T22:42:28.364Z,54.46
2018-09-03T22:44:58.561Z,54.69
2018-09-03T22:47:27.679Z,54.41
2018-09-03T22:49:56.797Z,54.61
2018-09-03T22:52:25.955Z,54.96
2018-09-03T22:54:55.099Z,55.23
2018-09-03T22:57:24.246Z,55.05
2018-09-03T22:59:53.417Z,55.36
2018-09-03T23:02:22.552Z,55.44
2018-09-03T23:04:51.737Z,55.48
2018-09-03T23:07:20.937Z,55.11
2018-09-03T23:09:50.069Z,54.95
2018-09-03T23:12:19.226Z,55.29
2018-09-03T23:14:48.391Z,55.59
2018-09-03T23:17:17.540Z,55.42
2018-09-03T23:19:46.697Z,55.35
2018-09-03T23:22:15.869Z,55.50
2018-09-03T23:24:45.023Z,56.04
2018-09-03T23:27:14.361Z,56.17
2018-09-03T23:29:43.558Z,56.30
2018-09-03T23:32:12.662Z,56.20
2018-09-03T23:34:41.833Z,56.85
2018-09-03T23:37:11.013Z,56.79
2018-09-03T23:39:40.194Z,56.86
2018-09-03T23:42:09.345Z,57.04
2018-09-03T23:44:38.524Z,57.20
2018-09-03T23:47:07.728Z,57.41
2018-09-03T23:49:36.902Z,57.37
2018-09-03T23:52:06.038Z,58.28
2018-09-03T23:54:35.152Z,58.38
2018-09-03T23:57:04.347Z,58.35
2018-09-03T23:59:33.446Z,58.95
